Hemingford, NE (69348)

1:25 AM MST on December 11, 2016 (GMT -0700)
Panhandle Coop-Alliance | | Change Station

Elev 4140 ft 42.22 °N, 102.98 °W | Updated 4 minutes ago

Overcast
Overcast
26.8 °F
Feels Like 22 °F
N
4.0
Wind Variable Wind from SSW
Gusts 10.0 mph

Today
High -- | Low -- °F
--% Chance of Precip.
Yesterday
High -- | Low -- °F
Precip. -- in
Pressure 29.85 in
Visibility 10.0 miles
Clouds Mostly Cloudy 9000 ft
Overcast 12000 ft
Windchill 22 °F
Dew Point 21 °F
Humidity 77%
Rainfall 0.00 in
Snow Depth Not available.
7:11 AM 4:19 PM
Waxing Gibbous, 90% visible
METAR KAIA 110753Z AUTO 33005KT 10SM BKN090 OVC120 M08/M11 A2974 RMK AO2 SLP108 T10781111
Pressure 29.85 in
Visibility 10.0 miles
Clouds Mostly Cloudy 9000 ft
Overcast 12000 ft
Windchill 22 °F
Dew Point 21 °F
Humidity 77%
Rainfall 0.00 in
Snow Depth Not available.
7:11 AM 4:19 PM
Waxing Gibbous, 90% visible
METAR KAIA 110753Z AUTO 33005KT 10SM BKN090 OVC120 M08/M11 A2974 RMK AO2 SLP108 T10781111

10-Day Weather Forecast

Almanac

Astronomy

Dec. 11, 2016 Rise Set
Actual Time
Civil Twilight
Nautical Twilight
Astronomical Twilight
Moon
Length of Visible Light
Length of Day
Tomorrow will be .
, % of the Moon is Illuminated

Today's Extremes

State Highs State Lows

Community

WunderPhotos

Upload Photos

1,956,705 photos uploaded!

WunderBlog® & News

Nearby

Air Quality

  Air Quality AQ Index Pollutant
Not available.

Snow Depth

Station Depth Elevation

Earthquake Activity

City Distance Mag. Time & Date
Minimum magnitude displayed is 2.5.

Coastal Water Temperatures

Place Temperature

Stations

Nearby Weather Stations

Station Location Temp. Windchill Dew Point Humidity Wind Precip. Elev Updated Type
                   

Watches & Warnings

There are currently no watches in effect.